createdAt,value
2022-10-03T00:05:00.304Z,6.70
2022-10-03T00:10:34.037Z,7.50
2022-10-03T00:16:04.453Z,6.80
2022-10-03T00:21:35.236Z,7.20
2022-10-03T00:27:07.747Z,7.60
2022-10-03T00:32:48.863Z,5.80
2022-10-03T00:38:18.578Z,5.40
2022-10-03T00:43:51.373Z,6.10
2022-10-03T00:48:56.132Z,6.00
2022-10-03T00:54:15.648Z,7.00
2022-10-03T00:59:23.337Z,6.80
2022-10-03T01:04:44.039Z,6.40
2022-10-03T01:10:35.256Z,6.10
2022-10-03T01:16:00.553Z,6.80
2022-10-03T01:21:08.535Z,5.30
2022-10-03T01:26:44.556Z,5.90
2022-10-03T01:32:11.741Z,5.30
2022-10-03T01:37:32.309Z,5.50
2022-10-03T01:42:43.964Z,4.60
2022-10-03T01:47:55.671Z,5.80
2022-10-03T01:53:13.595Z,5.00
2022-10-03T01:58:31.388Z,5.90
2022-10-03T02:09:05.348Z,5.90
2022-10-03T02:14:24.657Z,4.80
2022-10-03T02:19:42.459Z,5.80
2022-10-03T02:24:57.405Z,6.40
2022-10-03T02:30:14.493Z,7.50
2022-10-03T02:36:01.817Z,7.10
2022-10-03T02:41:39.445Z,6.10
2022-10-03T02:47:18.804Z,7.40
2022-10-03T02:53:07.678Z,5.50
2022-10-03T02:58:42.911Z,5.30
2022-10-03T03:04:15.388Z,5.30
2022-10-03T03:09:43.715Z,5.00
2022-10-03T03:15:34.055Z,6.10
2022-10-03T03:20:48.069Z,4.70
2022-10-03T03:26:15.222Z,6.00
2022-10-03T03:31:29.954Z,6.00
2022-10-03T03:36:48.993Z,6.10
2022-10-03T03:41:56.898Z,7.20
2022-10-03T03:47:10.641Z,7.80
2022-10-03T03:52:35.167Z,5.80
2022-10-03T03:57:44.059Z,5.60
2022-10-03T04:03:05.273Z,5.10
2022-10-03T04:08:28.612Z,5.80
2022-10-03T04:14:08.171Z,5.90
2022-10-03T04:19:26.125Z,5.60
2022-10-03T04:29:56.511Z,5.50
2022-10-03T04:35:04.470Z,5.60
2022-10-03T04:40:25.863Z,5.30
2022-10-03T04:45:45.930Z,5.00
2022-10-03T04:51:07.540Z,5.00
2022-10-03T04:56:44.691Z,6.00
2022-10-03T05:02:18.470Z,4.60
2022-10-03T05:07:42.573Z,5.60
2022-10-03T05:12:59.542Z,5.70
2022-10-03T05:18:26.979Z,4.60
2022-10-03T05:23:38.076Z,4.50
2022-10-03T05:29:04.194Z,5.90
2022-10-03T05:34:17.106Z,6.60
2022-10-03T05:39:56.581Z,5.70
2022-10-03T05:45:21.637Z,5.20
2022-10-03T05:50:29.259Z,4.90
2022-10-03T05:55:42.980Z,4.80
2022-10-03T06:01:00.650Z,4.80
2022-10-03T06:06:20.895Z,5.60
2022-10-03T06:12:03.237Z,4.80
2022-10-03T06:17:10.859Z,4.80
2022-10-03T06:22:32.688Z,4.70
2022-10-03T06:28:12.398Z,5.90
2022-10-03T06:33:56.117Z,4.50
2022-10-03T06:39:52.495Z,3.10
2022-10-03T06:45:16.365Z,3.90
2022-10-03T06:50:28.308Z,3.50
2022-10-03T06:55:46.854Z,4.00
2022-10-03T07:01:13.690Z,3.50
2022-10-03T07:06:46.237Z,3.50
2022-10-03T07:12:20.145Z,5.80
2022-10-03T07:17:50.705Z,5.40
2022-10-03T07:23:17.490Z,4.30
2022-10-03T07:28:49.780Z,4.20
2022-10-03T07:34:27.199Z,3.30
2022-10-03T07:39:47.615Z,3.60
2022-10-03T07:45:31.340Z,4.20
2022-10-03T07:50:56.889Z,4.50
2022-10-03T07:56:26.415Z,4.90
2022-10-03T08:01:48.190Z,4.40
2022-10-03T08:07:28.826Z,5.40
2022-10-03T08:12:45.957Z,2.90
2022-10-03T08:18:32.346Z,3.70
2022-10-03T08:23:49.337Z,4.90
2022-10-03T08:29:13.442Z,3.20
2022-10-03T08:34:36.846Z,2.90
2022-10-03T08:39:57.943Z,3.40
2022-10-03T08:45:30.842Z,3.50
2022-10-03T08:50:48.096Z,3.30
2022-10-03T08:56:27.690Z,2.80
2022-10-03T09:01:40.998Z,3.80
2022-10-03T09:07:18.077Z,2.20
2022-10-03T09:12:45.772Z,3.00
2022-10-03T09:18:01.984Z,3.00
2022-10-03T09:23:41.613Z,3.00
2022-10-03T09:28:50.481Z,3.10
2022-10-03T09:33:55.446Z,3.30
2022-10-03T09:39:08.169Z,3.30
2022-10-03T09:44:54.446Z,3.00
2022-10-03T09:49:56.229Z,3.50
2022-10-03T09:55:14.309Z,4.40
2022-10-03T10:00:24.074Z,7.20
2022-10-03T10:05:54.579Z,4.10
2022-10-03T10:11:12.465Z,3.50
2022-10-03T10:21:34.813Z,2.40
2022-10-03T10:27:11.061Z,2.50
2022-10-03T10:32:43.617Z,3.00
2022-10-03T10:37:55.137Z,2.90
2022-10-03T10:43:18.030Z,3.70
2022-10-03T10:48:44.754Z,3.70
2022-10-03T10:54:20.561Z,3.80
2022-10-03T10:59:53.649Z,3.30
2022-10-03T11:05:23.808Z,3.10
2022-10-03T11:10:34.616Z,2.70
2022-10-03T11:16:20.749Z,3.40
2022-10-03T11:22:13.952Z,3.60
2022-10-03T11:27:39.987Z,3.00
2022-10-03T11:33:33.014Z,3.20
2022-10-03T11:38:41.337Z,5.10
2022-10-03T11:44:15.560Z,4.60
2022-10-03T11:49:55.258Z,4.20
2022-10-03T11:55:15.951Z,3.80
2022-10-03T12:00:21.051Z,3.60
2022-10-03T12:05:47.462Z,3.10
2022-10-03T12:11:18.905Z,2.80
2022-10-03T12:17:16.732Z,2.60
2022-10-03T12:22:53.009Z,2.90
2022-10-03T12:27:57.856Z,2.90
2022-10-03T12:33:21.573Z,3.10
2022-10-03T12:38:51.412Z,3.50
2022-10-03T12:44:19.643Z,4.90
2022-10-03T12:49:30.347Z,3.90
2022-10-03T12:55:05.735Z,3.60
2022-10-03T13:00:21.033Z,3.60
2022-10-03T13:05:41.597Z,3.90
2022-10-03T13:10:54.698Z,3.30
2022-10-03T13:16:13.547Z,3.90
2022-10-03T13:21:44.900Z,3.30
2022-10-03T13:27:05.508Z,4.30
2022-10-03T13:32:13.333Z,4.20
2022-10-03T13:37:22.650Z,3.80
2022-10-03T13:42:39.418Z,4.80
2022-10-03T13:48:14.890Z,4.70
2022-10-03T13:53:50.326Z,5.30
2022-10-03T13:59:25.578Z,4.50
2022-10-03T14:04:57.121Z,4.70
2022-10-03T14:10:10.527Z,3.70
2022-10-03T14:15:27.920Z,4.50
2022-10-03T14:20:41.438Z,4.90
2022-10-03T14:26:05.645Z,4.10
2022-10-03T14:31:35.025Z,2.70
2022-10-03T14:36:49.821Z,2.70
2022-10-03T14:41:52.203Z,2.90
2022-10-03T14:47:09.083Z,2.40
2022-10-03T14:52:26.981Z,3.10
2022-10-03T14:57:39.686Z,2.70
2022-10-03T15:02:51.004Z,4.50
2022-10-03T15:08:13.693Z,4.50
2022-10-03T15:18:33.645Z,3.50
2022-10-03T15:23:43.897Z,2.90
2022-10-03T15:28:50.732Z,4.50
2022-10-03T15:33:54.374Z,4.80
2022-10-03T15:39:01.103Z,8.60
2022-10-03T15:44:13.536Z,4.00
2022-10-03T15:49:30.464Z,3.30
2022-10-03T15:54:38.795Z,3.60
2022-10-03T15:59:45.446Z,5.10
2022-10-03T16:04:48.940Z,3.80
2022-10-03T16:10:06.937Z,3.20
2022-10-03T16:15:21.327Z,4.40
2022-10-03T16:20:29.813Z,4.20
2022-10-03T16:25:49.310Z,4.90
2022-10-03T16:31:00.049Z,9.80
2022-10-03T16:36:05.462Z,4.40
2022-10-03T16:41:10.428Z,6.70
2022-10-03T16:46:21.277Z,5.70
2022-10-03T16:51:46.917Z,6.50
2022-10-03T16:56:57.024Z,6.50
2022-10-03T17:02:06.601Z,8.30
2022-10-03T17:07:15.636Z,7.20
2022-10-03T17:12:39.043Z,6.60
2022-10-03T17:18:34.909Z,6.50
2022-10-03T17:23:49.384Z,9.90
2022-10-03T17:29:08.415Z,8.90
2022-10-03T17:34:23.973Z,7.20
2022-10-03T17:39:35.137Z,7.10
2022-10-03T17:45:09.407Z,7.40
2022-10-03T17:50:17.041Z,8.10
2022-10-03T17:55:27.405Z,7.20
2022-10-03T18:00:45.264Z,7.40
2022-10-03T18:05:52.677Z,8.00
2022-10-03T18:11:05.178Z,6.00
2022-10-03T18:16:39.127Z,7.00
2022-10-03T18:21:44.492Z,7.60
2022-10-03T18:26:54.560Z,7.30
2022-10-03T18:32:02.114Z,8.10
2022-10-03T18:37:25.703Z,8.30
2022-10-03T18:42:29.874Z,10.40
2022-10-03T18:47:44.080Z,7.10
2022-10-03T18:52:52.789Z,11.50
2022-10-03T18:58:09.778Z,8.20
2022-10-03T19:03:16.237Z,6.70
2022-10-03T19:08:30.126Z,7.60
2022-10-03T19:13:37.193Z,9.00
2022-10-03T19:19:01.009Z,10.10
2022-10-03T19:24:13.271Z,8.30
2022-10-03T19:29:23.201Z,8.90
2022-10-03T19:34:38.171Z,8.60
2022-10-03T19:39:41.130Z,8.20
2022-10-03T19:44:44.331Z,7.20
2022-10-03T19:50:04.281Z,7.80
2022-10-03T19:55:33.634Z,7.90
2022-10-03T20:01:00.372Z,7.90
2022-10-03T20:06:11.494Z,6.20
2022-10-03T20:11:39.899Z,8.10
2022-10-03T20:16:46.644Z,5.10
2022-10-03T20:21:57.115Z,8.90
2022-10-03T20:27:30.453Z,10.20
2022-10-03T20:32:42.194Z,12.10
2022-10-03T20:37:52.129Z,9.70
2022-10-03T20:43:09.673Z,9.20
2022-10-03T20:48:22.536Z,8.90
2022-10-03T20:53:27.502Z,7.60
2022-10-03T20:58:42.282Z,7.10
2022-10-03T21:04:20.035Z,6.80
2022-10-03T21:09:39.347Z,6.70
2022-10-03T21:14:43.666Z,8.50
2022-10-03T21:20:01.301Z,11.70
2022-10-03T21:25:08.554Z,10.30
2022-10-03T21:30:18.842Z,10.10
2022-10-03T21:35:29.200Z,9.50
2022-10-03T21:40:49.122Z,6.40
2022-10-03T21:46:15.528Z,8.50
2022-10-03T21:51:49.348Z,8.30
2022-10-03T21:57:12.875Z,6.70
2022-10-03T22:02:37.479Z,6.00
2022-10-03T22:07:41.985Z,6.70
2022-10-03T22:13:07.317Z,7.00
2022-10-03T22:18:15.468Z,7.40
2022-10-03T22:23:23.505Z,6.40
2022-10-03T22:28:46.746Z,6.80
2022-10-03T22:34:08.908Z,6.40
2022-10-03T22:39:15.528Z,7.20
2022-10-03T22:44:21.632Z,5.90
2022-10-03T22:49:35.824Z,7.40
2022-10-03T22:54:40.787Z,8.40
2022-10-03T22:59:48.534Z,7.80
2022-10-03T23:04:55.841Z,6.30
2022-10-03T23:10:12.948Z,7.00
2022-10-03T23:15:36.730Z,7.40
2022-10-03T23:20:59.733Z,8.40
2022-10-03T23:26:23.261Z,8.80
2022-10-03T23:32:03.720Z,6.90
2022-10-03T23:37:11.221Z,6.80
2022-10-03T23:47:47.078Z,7.40
2022-10-03T23:52:58.086Z,7.00
2022-10-03T23:58:00.450Z,7.30
